sensor_id;sensor_type;location;lat;lon;timestamp;P1;durP1;ratioP1;P2;durP2;ratioP2
13114;SDS011;6623;52.120;8.660;2023-07-09T00:01:36;0.90;;;0.90;;
13114;SDS011;6623;52.120;8.660;2023-07-09T00:04:02;0.95;;;0.93;;
13114;SDS011;6623;52.120;8.660;2023-07-09T00:06:27;0.93;;;0.90;;
13114;SDS011;6623;52.120;8.660;2023-07-09T00:08:53;1.13;;;1.02;;
13114;SDS011;6623;52.120;8.660;2023-07-09T00:11:19;1.00;;;0.90;;
13114;SDS011;6623;52.120;8.660;2023-07-09T00:13:44;1.20;;;1.10;;
13114;SDS011;6623;52.120;8.660;2023-07-09T00:16:17;1.20;;;1.10;;
13114;SDS011;6623;52.120;8.660;2023-07-09T00:18:46;1.02;;;1.00;;
13114;SDS011;6623;52.120;8.660;2023-07-09T00:21:13;1.05;;;0.95;;
13114;SDS011;6623;52.120;8.660;2023-07-09T00:23:40;1.10;;;1.00;;
13114;SDS011;6623;52.120;8.660;2023-07-09T00:26:16;1.33;;;1.20;;
13114;SDS011;6623;52.120;8.660;2023-07-09T00:28:43;1.10;;;1.00;;
13114;SDS011;6623;52.120;8.660;2023-07-09T00:31:12;1.15;;;1.05;;
13114;SDS011;6623;52.120;8.660;2023-07-09T00:33:40;1.00;;;0.90;;
13114;SDS011;6623;52.120;8.660;2023-07-09T00:36:16;1.00;;;0.90;;
13114;SDS011;6623;52.120;8.660;2023-07-09T00:38:50;1.02;;;0.93;;
13114;SDS011;6623;52.120;8.660;2023-07-09T00:41:20;1.13;;;1.02;;
13114;SDS011;6623;52.120;8.660;2023-07-09T00:43:48;1.10;;;1.00;;
13114;SDS011;6623;52.120;8.660;2023-07-09T00:48:56;0.85;;;0.85;;
13114;SDS011;6623;52.120;8.660;2023-07-09T00:51:30;1.10;;;1.00;;
13114;SDS011;6623;52.120;8.660;2023-07-09T00:54:00;1.10;;;1.00;;
13114;SDS011;6623;52.120;8.660;2023-07-09T00:56:34;1.20;;;1.10;;
13114;SDS011;6623;52.120;8.660;2023-07-09T00:59:04;1.10;;;1.00;;
13114;SDS011;6623;52.120;8.660;2023-07-09T01:01:32;1.10;;;1.00;;
13114;SDS011;6623;52.120;8.660;2023-07-09T01:03:59;1.02;;;0.93;;
13114;SDS011;6623;52.120;8.660;2023-07-09T01:06:30;1.10;;;1.00;;
13114;SDS011;6623;52.120;8.660;2023-07-09T01:09:00;1.20;;;1.10;;
13114;SDS011;6623;52.120;8.660;2023-07-09T01:11:27;0.90;;;0.90;;
13114;SDS011;6623;52.120;8.660;2023-07-09T01:13:54;1.10;;;1.00;;
13114;SDS011;6623;52.120;8.660;2023-07-09T01:16:25;1.10;;;1.00;;
13114;SDS011;6623;52.120;8.660;2023-07-09T01:18:53;1.08;;;1.05;;
13114;SDS011;6623;52.120;8.660;2023-07-09T01:21:19;1.08;;;0.98;;
13114;SDS011;6623;52.120;8.660;2023-07-09T01:23:45;1.20;;;1.10;;
13114;SDS011;6623;52.120;8.660;2023-07-09T01:26:12;0.95;;;0.93;;
13114;SDS011;6623;52.120;8.660;2023-07-09T01:28:41;1.08;;;1.00;;
13114;SDS011;6623;52.120;8.660;2023-07-09T01:31:08;1.10;;;1.00;;
13114;SDS011;6623;52.120;8.660;2023-07-09T01:33:34;1.00;;;0.90;;
13114;SDS011;6623;52.120;8.660;2023-07-09T01:36:00;1.83;;;1.10;;
13114;SDS011;6623;52.120;8.660;2023-07-09T01:38:28;1.38;;;1.20;;
13114;SDS011;6623;52.120;8.660;2023-07-09T01:40:57;1.00;;;0.90;;
13114;SDS011;6623;52.120;8.660;2023-07-09T01:43:23;1.15;;;1.05;;
13114;SDS011;6623;52.120;8.660;2023-07-09T01:45:50;0.90;;;0.90;;
13114;SDS011;6623;52.120;8.660;2023-07-09T01:48:17;1.13;;;1.02;;
13114;SDS011;6623;52.120;8.660;2023-07-09T01:50:45;1.10;;;1.00;;
13114;SDS011;6623;52.120;8.660;2023-07-09T01:53:14;1.10;;;1.00;;
13114;SDS011;6623;52.120;8.660;2023-07-09T01:55:41;0.90;;;0.90;;
13114;SDS011;6623;52.120;8.660;2023-07-09T01:58:07;1.08;;;0.82;;
13114;SDS011;6623;52.120;8.660;2023-07-09T02:00:33;1.20;;;1.10;;
13114;SDS011;6623;52.120;8.660;2023-07-09T02:03:02;1.00;;;0.90;;
13114;SDS011;6623;52.120;8.660;2023-07-09T02:05:30;1.00;;;0.93;;
13114;SDS011;6623;52.120;8.660;2023-07-09T02:07:57;1.05;;;0.95;;
13114;SDS011;6623;52.120;8.660;2023-07-09T02:10:23;0.98;;;0.90;;
13114;SDS011;6623;52.120;8.660;2023-07-09T02:12:48;0.98;;;0.90;;
13114;SDS011;6623;52.120;8.660;2023-07-09T02:15:14;1.27;;;1.17;;
13114;SDS011;6623;52.120;8.660;2023-07-09T02:17:40;0.85;;;0.85;;
13114;SDS011;6623;52.120;8.660;2023-07-09T02:20:06;1.05;;;0.95;;
13114;SDS011;6623;52.120;8.660;2023-07-09T02:22:34;0.90;;;0.90;;
13114;SDS011;6623;52.120;8.660;2023-07-09T02:25:00;1.02;;;0.95;;
13114;SDS011;6623;52.120;8.660;2023-07-09T02:27:26;1.10;;;1.00;;
13114;SDS011;6623;52.120;8.660;2023-07-09T02:29:52;1.20;;;1.10;;
13114;SDS011;6623;52.120;8.660;2023-07-09T02:32:20;0.90;;;0.90;;
13114;SDS011;6623;52.120;8.660;2023-07-09T02:34:48;1.10;;;1.00;;
13114;SDS011;6623;52.120;8.660;2023-07-09T02:37:17;0.80;;;0.80;;
13114;SDS011;6623;52.120;8.660;2023-07-09T02:39:44;1.10;;;1.00;;
13114;SDS011;6623;52.120;8.660;2023-07-09T02:42:10;1.10;;;1.00;;
13114;SDS011;6623;52.120;8.660;2023-07-09T02:44:38;1.10;;;1.00;;
13114;SDS011;6623;52.120;8.660;2023-07-09T02:47:05;1.10;;;1.00;;
13114;SDS011;6623;52.120;8.660;2023-07-09T02:49:30;1.00;;;0.93;;
13114;SDS011;6623;52.120;8.660;2023-07-09T02:51:56;0.80;;;0.80;;
13114;SDS011;6623;52.120;8.660;2023-07-09T02:54:21;0.90;;;0.90;;
13114;SDS011;6623;52.120;8.660;2023-07-09T02:56:47;1.10;;;1.00;;
13114;SDS011;6623;52.120;8.660;2023-07-09T02:59:12;1.10;;;0.80;;
13114;SDS011;6623;52.120;8.660;2023-07-09T03:01:38;1.10;;;1.00;;
13114;SDS011;6623;52.120;8.660;2023-07-09T03:04:04;1.10;;;1.00;;
13114;SDS011;6623;52.120;8.660;2023-07-09T03:06:30;1.08;;;0.98;;
13114;SDS011;6623;52.120;8.660;2023-07-09T03:08:59;1.13;;;0.95;;
13114;SDS011;6623;52.120;8.660;2023-07-09T03:11:27;1.20;;;0.90;;
13114;SDS011;6623;52.120;8.660;2023-07-09T03:13:55;1.00;;;0.90;;
13114;SDS011;6623;52.120;8.660;2023-07-09T03:16:20;1.02;;;0.93;;
13114;SDS011;6623;52.120;8.660;2023-07-09T03:18:46;1.15;;;1.00;;
13114;SDS011;6623;52.120;8.660;2023-07-09T03:21:11;1.10;;;1.00;;
13114;SDS011;6623;52.120;8.660;2023-07-09T03:23:37;0.90;;;0.90;;
13114;SDS011;6623;52.120;8.660;2023-07-09T03:26:03;1.10;;;1.00;;
13114;SDS011;6623;52.120;8.660;2023-07-09T03:28:30;1.20;;;1.10;;
13114;SDS011;6623;52.120;8.660;2023-07-09T03:30:56;1.10;;;1.00;;
13114;SDS011;6623;52.120;8.660;2023-07-09T03:33:22;1.10;;;1.00;;
13114;SDS011;6623;52.120;8.660;2023-07-09T03:35:48;1.10;;;1.00;;
13114;SDS011;6623;52.120;8.660;2023-07-09T03:38:14;0.90;;;0.90;;
13114;SDS011;6623;52.120;8.660;2023-07-09T03:40:40;1.05;;;0.90;;
13114;SDS011;6623;52.120;8.660;2023-07-09T03:43:05;1.10;;;1.00;;
13114;SDS011;6623;52.120;8.660;2023-07-09T03:45:32;1.10;;;1.00;;
13114;SDS011;6623;52.120;8.660;2023-07-09T03:48:00;0.90;;;0.88;;
13114;SDS011;6623;52.120;8.660;2023-07-09T03:50:26;1.10;;;1.00;;
13114;SDS011;6623;52.120;8.660;2023-07-09T03:52:52;1.20;;;1.10;;
13114;SDS011;6623;52.120;8.660;2023-07-09T03:55:17;0.77;;;0.77;;
13114;SDS011;6623;52.120;8.660;2023-07-09T03:57:43;1.10;;;0.88;;
13114;SDS011;6623;52.120;8.660;2023-07-09T04:00:09;0.70;;;0.70;;
13114;SDS011;6623;52.120;8.660;2023-07-09T04:02:35;1.00;;;0.98;;
13114;SDS011;6623;52.120;8.660;2023-07-09T04:05:01;1.25;;;1.15;;
13114;SDS011;6623;52.120;8.660;2023-07-09T04:07:28;1.10;;;1.00;;
13114;SDS011;6623;52.120;8.660;2023-07-09T04:09:53;1.10;;;1.00;;
13114;SDS011;6623;52.120;8.660;2023-07-09T04:12:19;1.05;;;0.98;;
13114;SDS011;6623;52.120;8.660;2023-07-09T04:14:44;1.10;;;1.00;;
13114;SDS011;6623;52.120;8.660;2023-07-09T04:17:10;1.10;;;1.05;;
13114;SDS011;6623;52.120;8.660;2023-07-09T04:19:35;1.10;;;1.00;;
13114;SDS011;6623;52.120;8.660;2023-07-09T04:22:01;1.10;;;1.00;;
13114;SDS011;6623;52.120;8.660;2023-07-09T04:24:27;1.10;;;1.00;;
13114;SDS011;6623;52.120;8.660;2023-07-09T04:26:52;0.95;;;0.90;;
13114;SDS011;6623;52.120;8.660;2023-07-09T04:29:21;1.10;;;1.00;;
13114;SDS011;6623;52.120;8.660;2023-07-09T04:31:49;1.05;;;0.98;;
13114;SDS011;6623;52.120;8.660;2023-07-09T04:34:15;1.10;;;1.00;;
13114;SDS011;6623;52.120;8.660;2023-07-09T04:36:40;0.90;;;0.90;;
13114;SDS011;6623;52.120;8.660;2023-07-09T04:39:06;1.20;;;1.10;;
13114;SDS011;6623;52.120;8.660;2023-07-09T04:41:32;1.20;;;1.10;;
13114;SDS011;6623;52.120;8.660;2023-07-09T04:43:58;0.90;;;0.90;;
13114;SDS011;6623;52.120;8.660;2023-07-09T04:46:23;1.08;;;0.98;;
13114;SDS011;6623;52.120;8.660;2023-07-09T04:48:49;0.90;;;0.88;;
13114;SDS011;6623;52.120;8.660;2023-07-09T04:51:15;1.13;;;1.00;;
13114;SDS011;6623;52.120;8.660;2023-07-09T04:53:40;1.10;;;1.00;;
13114;SDS011;6623;52.120;8.660;2023-07-09T04:56:07;1.35;;;1.25;;
13114;SDS011;6623;52.120;8.660;2023-07-09T04:58:34;1.13;;;1.02;;
13114;SDS011;6623;52.120;8.660;2023-07-09T05:01:00;1.00;;;0.90;;
13114;SDS011;6623;52.120;8.660;2023-07-09T05:03:25;1.30;;;1.00;;
13114;SDS011;6623;52.120;8.660;2023-07-09T05:05:51;1.05;;;0.98;;
13114;SDS011;6623;52.120;8.660;2023-07-09T05:08:17;1.10;;;1.00;;
13114;SDS011;6623;52.120;8.660;2023-07-09T05:10:43;0.90;;;0.90;;
13114;SDS011;6623;52.120;8.660;2023-07-09T05:13:10;1.20;;;1.10;;
13114;SDS011;6623;52.120;8.660;2023-07-09T05:15:39;1.10;;;1.00;;
13114;SDS011;6623;52.120;8.660;2023-07-09T05:18:06;1.40;;;1.00;;
13114;SDS011;6623;52.120;8.660;2023-07-09T05:20:33;0.95;;;0.88;;
13114;SDS011;6623;52.120;8.660;2023-07-09T05:22:58;1.02;;;0.93;;
13114;SDS011;6623;52.120;8.660;2023-07-09T05:25:24;1.30;;;1.20;;
13114;SDS011;6623;52.120;8.660;2023-07-09T05:27:49;1.02;;;0.93;;
13114;SDS011;6623;52.120;8.660;2023-07-09T05:30:16;1.10;;;1.00;;
13114;SDS011;6623;52.120;8.660;2023-07-09T05:32:42;0.98;;;0.93;;
13114;SDS011;6623;52.120;8.660;2023-07-09T05:35:08;1.10;;;1.00;;
13114;SDS011;6623;52.120;8.660;2023-07-09T05:37:34;1.40;;;1.20;;
13114;SDS011;6623;52.120;8.660;2023-07-09T05:40:00;0.80;;;0.80;;
13114;SDS011;6623;52.120;8.660;2023-07-09T05:42:26;0.93;;;0.93;;
13114;SDS011;6623;52.120;8.660;2023-07-09T05:44:51;1.10;;;1.00;;
13114;SDS011;6623;52.120;8.660;2023-07-09T05:47:17;1.10;;;1.00;;
13114;SDS011;6623;52.120;8.660;2023-07-09T05:49:43;1.23;;;1.13;;
13114;SDS011;6623;52.120;8.660;2023-07-09T05:52:08;1.10;;;1.00;;
13114;SDS011;6623;52.120;8.660;2023-07-09T05:54:34;1.15;;;1.05;;
13114;SDS011;6623;52.120;8.660;2023-07-09T05:56:59;1.10;;;0.90;;
13114;SDS011;6623;52.120;8.660;2023-07-09T05:59:25;1.10;;;1.00;;
13114;SDS011;6623;52.120;8.660;2023-07-09T06:01:50;1.00;;;1.00;;
13114;SDS011;6623;52.120;8.660;2023-07-09T06:04:16;1.13;;;1.02;;
13114;SDS011;6623;52.120;8.660;2023-07-09T06:06:42;1.10;;;1.00;;
13114;SDS011;6623;52.120;8.660;2023-07-09T06:09:07;1.85;;;1.27;;
13114;SDS011;6623;52.120;8.660;2023-07-09T06:11:34;1.23;;;1.13;;
13114;SDS011;6623;52.120;8.660;2023-07-09T06:13:59;1.30;;;1.20;;
13114;SDS011;6623;52.120;8.660;2023-07-09T06:16:25;1.20;;;1.05;;
13114;SDS011;6623;52.120;8.660;2023-07-09T06:18:51;1.10;;;1.00;;
13114;SDS011;6623;52.120;8.660;2023-07-09T06:21:17;1.60;;;1.25;;
13114;SDS011;6623;52.120;8.660;2023-07-09T06:23:42;1.20;;;1.10;;
13114;SDS011;6623;52.120;8.660;2023-07-09T06:26:09;1.38;;;1.20;;
13114;SDS011;6623;52.120;8.660;2023-07-09T06:28:35;1.30;;;1.20;;
13114;SDS011;6623;52.120;8.660;2023-07-09T06:31:00;1.25;;;1.15;;
13114;SDS011;6623;52.120;8.660;2023-07-09T06:33:26;1.50;;;1.40;;
13114;SDS011;6623;52.120;8.660;2023-07-09T06:35:55;1.98;;;1.35;;
13114;SDS011;6623;52.120;8.660;2023-07-09T06:38:24;1.30;;;1.13;;
13114;SDS011;6623;52.120;8.660;2023-07-09T06:40:50;2.13;;;1.25;;
13114;SDS011;6623;52.120;8.660;2023-07-09T06:43:16;1.52;;;1.42;;
13114;SDS011;6623;52.120;8.660;2023-07-09T06:45:52;1.48;;;1.30;;
13114;SDS011;6623;52.120;8.660;2023-07-09T06:48:20;1.38;;;1.27;;
13114;SDS011;6623;52.120;8.660;2023-07-09T06:50:46;1.60;;;1.30;;
13114;SDS011;6623;52.120;8.660;2023-07-09T06:53:12;1.45;;;1.35;;
13114;SDS011;6623;52.120;8.660;2023-07-09T06:55:37;1.73;;;1.30;;
13114;SDS011;6623;52.120;8.660;2023-07-09T06:58:03;1.60;;;1.50;;
13114;SDS011;6623;52.120;8.660;2023-07-09T07:00:29;1.55;;;1.45;;
13114;SDS011;6623;52.120;8.660;2023-07-09T07:02:54;1.58;;;1.30;;
13114;SDS011;6623;52.120;8.660;2023-07-09T07:05:20;1.52;;;1.38;;
13114;SDS011;6623;52.120;8.660;2023-07-09T07:07:46;1.40;;;1.25;;
13114;SDS011;6623;52.120;8.660;2023-07-09T07:10:12;1.60;;;1.50;;
13114;SDS011;6623;52.120;8.660;2023-07-09T07:12:44;1.60;;;1.40;;
13114;SDS011;6623;52.120;8.660;2023-07-09T07:15:12;1.50;;;1.40;;
13114;SDS011;6623;52.120;8.660;2023-07-09T07:17:39;1.75;;;1.38;;
13114;SDS011;6623;52.120;8.660;2023-07-09T07:20:06;1.42;;;1.33;;
13114;SDS011;6623;52.120;8.660;2023-07-09T07:22:32;1.70;;;1.60;;
13114;SDS011;6623;52.120;8.660;2023-07-09T07:24:58;4.18;;;1.70;;
13114;SDS011;6623;52.120;8.660;2023-07-09T07:27:23;1.60;;;1.38;;
13114;SDS011;6623;52.120;8.660;2023-07-09T07:29:49;1.67;;;1.33;;
13114;SDS011;6623;52.120;8.660;2023-07-09T07:32:14;1.83;;;1.67;;
13114;SDS011;6623;52.120;8.660;2023-07-09T07:34:40;2.35;;;1.95;;
13114;SDS011;6623;52.120;8.660;2023-07-09T07:37:05;4.45;;;2.20;;
13114;SDS011;6623;52.120;8.660;2023-07-09T07:39:31;2.20;;;1.85;;
13114;SDS011;6623;52.120;8.660;2023-07-09T07:41:56;2.10;;;1.90;;
13114;SDS011;6623;52.120;8.660;2023-07-09T07:44:22;2.58;;;2.05;;
13114;SDS011;6623;52.120;8.660;2023-07-09T07:46:48;2.47;;;2.20;;
13114;SDS011;6623;52.120;8.660;2023-07-09T07:49:14;4.82;;;2.25;;
13114;SDS011;6623;52.120;8.660;2023-07-09T07:51:39;3.70;;;2.28;;
13114;SDS011;6623;52.120;8.660;2023-07-09T07:54:05;3.85;;;2.28;;
13114;SDS011;6623;52.120;8.660;2023-07-09T07:56:33;3.20;;;2.00;;
13114;SDS011;6623;52.120;8.660;2023-07-09T07:58:59;4.38;;;2.00;;
13114;SDS011;6623;52.120;8.660;2023-07-09T08:01:24;4.22;;;2.20;;
13114;SDS011;6623;52.120;8.660;2023-07-09T08:03:51;3.08;;;2.08;;
13114;SDS011;6623;52.120;8.660;2023-07-09T08:06:16;4.63;;;2.22;;
13114;SDS011;6623;52.120;8.660;2023-07-09T08:08:42;3.08;;;1.90;;
13114;SDS011;6623;52.120;8.660;2023-07-09T08:11:08;3.72;;;2.13;;
13114;SDS011;6623;52.120;8.660;2023-07-09T08:13:34;4.13;;;2.20;;
13114;SDS011;6623;52.120;8.660;2023-07-09T08:16:01;3.72;;;2.00;;
13114;SDS011;6623;52.120;8.660;2023-07-09T08:18:27;3.95;;;2.20;;
13114;SDS011;6623;52.120;8.660;2023-07-09T08:20:53;3.17;;;2.17;;
13114;SDS011;6623;52.120;8.660;2023-07-09T08:23:18;2.25;;;1.92;;
13114;SDS011;6623;52.120;8.660;2023-07-09T08:25:44;3.28;;;2.17;;
13114;SDS011;6623;52.120;8.660;2023-07-09T08:28:18;2.42;;;2.20;;
13114;SDS011;6623;52.120;8.660;2023-07-09T08:30:43;2.97;;;2.10;;
13114;SDS011;6623;52.120;8.660;2023-07-09T08:33:09;2.47;;;2.20;;
13114;SDS011;6623;52.120;8.660;2023-07-09T08:35:35;2.83;;;1.88;;
13114;SDS011;6623;52.120;8.660;2023-07-09T08:38:00;4.20;;;1.90;;
13114;SDS011;6623;52.120;8.660;2023-07-09T08:40:26;2.50;;;2.17;;
13114;SDS011;6623;52.120;8.660;2023-07-09T08:42:53;2.80;;;2.00;;
13114;SDS011;6623;52.120;8.660;2023-07-09T08:45:42;2.80;;;1.90;;
13114;SDS011;6623;52.120;8.660;2023-07-09T08:48:32;3.75;;;1.95;;
13114;SDS011;6623;52.120;8.660;2023-07-09T08:50:59;2.35;;;2.15;;
13114;SDS011;6623;52.120;8.660;2023-07-09T08:56:00;3.97;;;2.10;;
13114;SDS011;6623;52.120;8.660;2023-07-09T08:58:30;3.35;;;2.45;;
13114;SDS011;6623;52.120;8.660;2023-07-09T09:00:57;3.40;;;2.00;;
13114;SDS011;6623;52.120;8.660;2023-07-09T09:03:43;2.40;;;2.20;;
13114;SDS011;6623;52.120;8.660;2023-07-09T09:06:12;2.60;;;2.03;;
13114;SDS011;6623;52.120;8.660;2023-07-09T09:08:40;2.95;;;2.10;;
13114;SDS011;6623;52.120;8.660;2023-07-09T09:14:23;3.55;;;2.47;;
13114;SDS011;6623;52.120;8.660;2023-07-09T09:17:09;4.35;;;2.53;;
13114;SDS011;6623;52.120;8.660;2023-07-09T09:19:45;6.03;;;2.30;;
13114;SDS011;6623;52.120;8.660;2023-07-09T09:22:27;3.40;;;2.17;;
13114;SDS011;6623;52.120;8.660;2023-07-09T09:25:01;3.75;;;2.00;;
13114;SDS011;6623;52.120;8.660;2023-07-09T09:27:30;5.35;;;2.55;;
13114;SDS011;6623;52.120;8.660;2023-07-09T09:29:55;2.17;;;1.95;;
13114;SDS011;6623;52.120;8.660;2023-07-09T09:34:59;3.53;;;2.08;;
13114;SDS011;6623;52.120;8.660;2023-07-09T09:37:36;3.88;;;2.15;;
13114;SDS011;6623;52.120;8.660;2023-07-09T09:40:01;2.30;;;2.10;;
13114;SDS011;6623;52.120;8.660;2023-07-09T09:42:27;3.88;;;2.05;;
13114;SDS011;6623;52.120;8.660;2023-07-09T09:44:53;3.47;;;1.98;;
13114;SDS011;6623;52.120;8.660;2023-07-09T09:47:20;2.40;;;2.20;;
13114;SDS011;6623;52.120;8.660;2023-07-09T09:49:46;2.30;;;2.10;;
13114;SDS011;6623;52.120;8.660;2023-07-09T09:52:15;2.40;;;2.20;;
13114;SDS011;6623;52.120;8.660;2023-07-09T09:54:53;2.95;;;2.25;;
13114;SDS011;6623;52.120;8.660;2023-07-09T09:57:21;2.33;;;2.13;;
13114;SDS011;6623;52.120;8.660;2023-07-09T09:59:48;2.15;;;1.92;;
13114;SDS011;6623;52.120;8.660;2023-07-09T10:02:38;2.10;;;1.65;;
13114;SDS011;6623;52.120;8.660;2023-07-09T10:05:13;2.67;;;1.98;;
13114;SDS011;6623;52.120;8.660;2023-07-09T10:07:43;1.80;;;1.70;;
13114;SDS011;6623;52.120;8.660;2023-07-09T10:10:22;2.13;;;1.80;;
13114;SDS011;6623;52.120;8.660;2023-07-09T10:12:51;2.42;;;2.20;;
13114;SDS011;6623;52.120;8.660;2023-07-09T10:18:48;2.28;;;1.90;;
13114;SDS011;6623;52.120;8.660;2023-07-09T10:21:34;2.15;;;1.80;;
13114;SDS011;6623;52.120;8.660;2023-07-09T10:24:26;2.10;;;1.90;;
13114;SDS011;6623;52.120;8.660;2023-07-09T10:27:13;2.10;;;1.88;;
13114;SDS011;6623;52.120;8.660;2023-07-09T10:29:51;2.28;;;2.08;;
13114;SDS011;6623;52.120;8.660;2023-07-09T10:41:18;3.65;;;2.10;;
13114;SDS011;6623;52.120;8.660;2023-07-09T10:43:47;2.35;;;2.15;;
13114;SDS011;6623;52.120;8.660;2023-07-09T10:46:18;2.13;;;1.88;;
13114;SDS011;6623;52.120;8.660;2023-07-09T10:48:51;2.10;;;1.90;;
13114;SDS011;6623;52.120;8.660;2023-07-09T10:51:21;2.70;;;1.83;;
13114;SDS011;6623;52.120;8.660;2023-07-09T10:53:58;3.42;;;1.90;;
13114;SDS011;6623;52.120;8.660;2023-07-09T10:56:39;1.98;;;1.77;;
13114;SDS011;6623;52.120;8.660;2023-07-09T10:59:48;2.78;;;1.90;;
13114;SDS011;6623;52.120;8.660;2023-07-09T11:04:58;3.25;;;2.20;;
13114;SDS011;6623;52.120;8.660;2023-07-09T11:07:27;3.53;;;2.20;;
13114;SDS011;6623;52.120;8.660;2023-07-09T11:10:01;1.77;;;1.67;;
13114;SDS011;6623;52.120;8.660;2023-07-09T11:15:06;2.45;;;2.25;;
13114;SDS011;6623;52.120;8.660;2023-07-09T11:17:38;2.22;;;2.03;;
13114;SDS011;6623;52.120;8.660;2023-07-09T11:20:16;2.65;;;2.28;;
13114;SDS011;6623;52.120;8.660;2023-07-09T11:23:22;2.80;;;2.50;;
13114;SDS011;6623;52.120;8.660;2023-07-09T11:26:00;3.15;;;2.30;;
13114;SDS011;6623;52.120;8.660;2023-07-09T11:28:35;2.13;;;1.92;;
13114;SDS011;6623;52.120;8.660;2023-07-09T11:31:06;2.33;;;2.10;;
13114;SDS011;6623;52.120;8.660;2023-07-09T11:33:33;2.80;;;2.40;;
13114;SDS011;6623;52.120;8.660;2023-07-09T11:36:10;2.75;;;2.33;;
13114;SDS011;6623;52.120;8.660;2023-07-09T11:38:39;2.80;;;2.28;;
13114;SDS011;6623;52.120;8.660;2023-07-09T11:44:10;3.60;;;2.65;;
13114;SDS011;6623;52.120;8.660;2023-07-09T11:46:42;3.75;;;3.13;;
13114;SDS011;6623;52.120;8.660;2023-07-09T11:49:14;6.18;;;3.67;;
13114;SDS011;6623;52.120;8.660;2023-07-09T11:51:42;9.07;;;3.60;;
13114;SDS011;6623;52.120;8.660;2023-07-09T11:54:12;7.90;;;3.85;;
13114;SDS011;6623;52.120;8.660;2023-07-09T11:56:41;8.75;;;3.42;;
13114;SDS011;6623;52.120;8.660;2023-07-09T11:59:07;5.88;;;3.28;;
13114;SDS011;6623;52.120;8.660;2023-07-09T12:01:42;7.10;;;3.42;;
13114;SDS011;6623;52.120;8.660;2023-07-09T12:04:16;4.93;;;3.15;;
13114;SDS011;6623;52.120;8.660;2023-07-09T12:06:44;5.00;;;3.55;;
13114;SDS011;6623;52.120;8.660;2023-07-09T12:09:14;5.95;;;3.33;;
13114;SDS011;6623;52.120;8.660;2023-07-09T12:11:45;5.03;;;3.40;;
13114;SDS011;6623;52.120;8.660;2023-07-09T12:14:14;5.47;;;3.22;;
13114;SDS011;6623;52.120;8.660;2023-07-09T12:16:43;3.90;;;3.28;;
13114;SDS011;6623;52.120;8.660;2023-07-09T12:19:11;9.20;;;3.65;;
13114;SDS011;6623;52.120;8.660;2023-07-09T12:21:39;5.55;;;3.88;;
13114;SDS011;6623;52.120;8.660;2023-07-09T12:26:52;6.47;;;3.75;;
13114;SDS011;6623;52.120;8.660;2023-07-09T12:29:18;4.82;;;3.20;;
13114;SDS011;6623;52.120;8.660;2023-07-09T12:31:44;4.00;;;3.13;;
13114;SDS011;6623;52.120;8.660;2023-07-09T12:34:11;6.72;;;3.42;;
13114;SDS011;6623;52.120;8.660;2023-07-09T12:36:40;4.82;;;3.05;;
13114;SDS011;6623;52.120;8.660;2023-07-09T12:39:09;5.72;;;3.55;;
13114;SDS011;6623;52.120;8.660;2023-07-09T12:41:38;4.22;;;3.38;;
13114;SDS011;6623;52.120;8.660;2023-07-09T12:44:08;4.63;;;3.30;;
13114;SDS011;6623;52.120;8.660;2023-07-09T12:46:42;4.05;;;3.33;;
13114;SDS011;6623;52.120;8.660;2023-07-09T12:49:12;5.90;;;3.50;;
13114;SDS011;6623;52.120;8.660;2023-07-09T12:51:49;8.13;;;3.75;;
13114;SDS011;6623;52.120;8.660;2023-07-09T12:54:16;5.63;;;3.40;;
13114;SDS011;6623;52.120;8.660;2023-07-09T12:56:43;3.65;;;3.13;;
13114;SDS011;6623;52.120;8.660;2023-07-09T12:59:20;6.10;;;3.47;;
13114;SDS011;6623;52.120;8.660;2023-07-09T13:04:31;6.03;;;3.13;;
13114;SDS011;6623;52.120;8.660;2023-07-09T13:06:58;4.15;;;3.30;;
13114;SDS011;6623;52.120;8.660;2023-07-09T13:09:25;4.40;;;3.25;;
13114;SDS011;6623;52.120;8.660;2023-07-09T13:11:51;4.85;;;3.03;;
13114;SDS011;6623;52.120;8.660;2023-07-09T13:14:22;4.18;;;3.13;;
13114;SDS011;6623;52.120;8.660;2023-07-09T13:16:49;3.55;;;3.22;;
13114;SDS011;6623;52.120;8.660;2023-07-09T13:19:16;4.13;;;3.17;;
13114;SDS011;6623;52.120;8.660;2023-07-09T13:21:42;4.18;;;3.17;;
13114;SDS011;6623;52.120;8.660;2023-07-09T13:24:22;6.00;;;3.55;;
13114;SDS011;6623;52.120;8.660;2023-07-09T13:26:49;5.22;;;3.20;;
13114;SDS011;6623;52.120;8.660;2023-07-09T13:29:16;4.57;;;3.17;;
13114;SDS011;6623;52.120;8.660;2023-07-09T13:31:46;5.20;;;3.40;;
13114;SDS011;6623;52.120;8.660;2023-07-09T13:34:23;3.63;;;3.13;;
13114;SDS011;6623;52.120;8.660;2023-07-09T13:36:49;6.78;;;3.63;;
13114;SDS011;6623;52.120;8.660;2023-07-09T13:39:16;4.03;;;3.05;;
13114;SDS011;6623;52.120;8.660;2023-07-09T13:41:42;3.88;;;3.33;;
13114;SDS011;6623;52.120;8.660;2023-07-09T13:44:14;3.33;;;2.83;;
13114;SDS011;6623;52.120;8.660;2023-07-09T13:46:45;3.97;;;3.30;;
13114;SDS011;6623;52.120;8.660;2023-07-09T13:49:11;3.92;;;2.90;;
13114;SDS011;6623;52.120;8.660;2023-07-09T13:51:39;5.85;;;3.53;;
13114;SDS011;6623;52.120;8.660;2023-07-09T13:54:23;5.25;;;3.50;;
13114;SDS011;6623;52.120;8.660;2023-07-09T13:56:52;5.10;;;3.63;;
13114;SDS011;6623;52.120;8.660;2023-07-09T13:59:19;5.85;;;3.30;;
13114;SDS011;6623;52.120;8.660;2023-07-09T14:01:48;3.78;;;3.08;;
13114;SDS011;6623;52.120;8.660;2023-07-09T14:04:16;6.63;;;3.20;;
13114;SDS011;6623;52.120;8.660;2023-07-09T14:06:44;4.97;;;3.65;;
13114;SDS011;6623;52.120;8.660;2023-07-09T14:09:13;4.35;;;3.00;;
13114;SDS011;6623;52.120;8.660;2023-07-09T14:11:49;4.40;;;3.03;;
13114;SDS011;6623;52.120;8.660;2023-07-09T14:14:25;4.00;;;3.10;;
13114;SDS011;6623;52.120;8.660;2023-07-09T14:16:56;3.35;;;2.88;;
13114;SDS011;6623;52.120;8.660;2023-07-09T14:19:22;4.88;;;3.40;;
13114;SDS011;6623;52.120;8.660;2023-07-09T14:21:48;3.97;;;3.30;;
13114;SDS011;6623;52.120;8.660;2023-07-09T14:24:22;3.15;;;2.85;;
13114;SDS011;6623;52.120;8.660;2023-07-09T14:26:54;4.63;;;3.30;;
13114;SDS011;6623;52.120;8.660;2023-07-09T14:29:22;4.05;;;3.17;;
13114;SDS011;6623;52.120;8.660;2023-07-09T14:31:48;3.92;;;3.13;;
13114;SDS011;6623;52.120;8.660;2023-07-09T14:34:24;3.70;;;3.28;;
13114;SDS011;6623;52.120;8.660;2023-07-09T14:36:55;4.68;;;3.60;;
13114;SDS011;6623;52.120;8.660;2023-07-09T14:39:21;4.70;;;2.92;;
13114;SDS011;6623;52.120;8.660;2023-07-09T14:41:48;4.28;;;3.35;;
13114;SDS011;6623;52.120;8.660;2023-07-09T14:46:48;3.53;;;2.97;;
13114;SDS011;6623;52.120;8.660;2023-07-09T14:49:15;4.50;;;3.17;;
13114;SDS011;6623;52.120;8.660;2023-07-09T14:51:41;4.72;;;3.35;;
13114;SDS011;6623;52.120;8.660;2023-07-09T14:54:17;4.22;;;3.47;;
13114;SDS011;6623;52.120;8.660;2023-07-09T14:56:48;4.93;;;3.03;;
13114;SDS011;6623;52.120;8.660;2023-07-09T14:59:14;3.75;;;3.30;;
13114;SDS011;6623;52.120;8.660;2023-07-09T15:01:40;3.75;;;3.38;;
13114;SDS011;6623;52.120;8.660;2023-07-09T15:04:49;4.93;;;3.03;;
13114;SDS011;6623;52.120;8.660;2023-07-09T15:06:57;3.60;;;3.30;;
13114;SDS011;6623;52.120;8.660;2023-07-09T15:09:24;3.50;;;2.75;;
13114;SDS011;6623;52.120;8.660;2023-07-09T15:11:52;4.15;;;3.28;;
13114;SDS011;6623;52.120;8.660;2023-07-09T15:14:19;4.22;;;2.97;;
13114;SDS011;6623;52.120;8.660;2023-07-09T15:16:48;3.83;;;2.95;;
13114;SDS011;6623;52.120;8.660;2023-07-09T15:19:15;4.43;;;3.33;;
13114;SDS011;6623;52.120;8.660;2023-07-09T15:21:43;3.15;;;2.85;;
13114;SDS011;6623;52.120;8.660;2023-07-09T15:26:53;4.57;;;3.08;;
13114;SDS011;6623;52.120;8.660;2023-07-09T15:29:19;4.53;;;3.20;;
13114;SDS011;6623;52.120;8.660;2023-07-09T15:31:46;3.58;;;3.20;;
13114;SDS011;6623;52.120;8.660;2023-07-09T15:34:12;3.70;;;3.05;;
13114;SDS011;6623;52.120;8.660;2023-07-09T15:36:43;3.20;;;2.88;;
13114;SDS011;6623;52.120;8.660;2023-07-09T15:39:11;3.38;;;2.72;;
13114;SDS011;6623;52.120;8.660;2023-07-09T15:41:37;4.25;;;3.10;;
13114;SDS011;6623;52.120;8.660;2023-07-09T15:44:03;3.58;;;3.15;;
13114;SDS011;6623;52.120;8.660;2023-07-09T15:46:33;4.20;;;3.13;;
13114;SDS011;6623;52.120;8.660;2023-07-09T15:48:59;3.15;;;2.85;;
13114;SDS011;6623;52.120;8.660;2023-07-09T15:51:24;2.72;;;2.38;;